Time;durP1;ratioP1;P1;durP2;ratioP2;P2;SDS_P1;SDS_P2;PMS_P1;PMS_P2;Temp;Humidity;BMP_temperature;BMP_pressure;BME280_temperature;BME280_humidity;BME280_pressure;Samples;Min_cycle;Max_cycle;Signal;HPM_P1;HPM_P2
2022/10/05 00:02:20;;;;;;;53.97;40.85;;;;;;;;;;6295906;28;20059;-65
2022/10/05 00:05:27;;;;;;;59.97;43.33;;;;;;;;;;6289196;28;20056;-65
2022/10/05 00:08:32;;;;;;;58.55;43.45;;;;;;;;;;6289918;28;20209;-64
2022/10/05 00:11:33;;;;;;;62.65;47.58;;;;;;;;;;6293120;28;20123;-63
2022/10/05 00:14:35;;;;;;;60.92;46.15;;;;;;;;;;6295649;28;20135;-65
2022/10/05 00:17:38;;;;;;;62.92;46.05;;;;;;;;;;6286740;28;20051;-65
2022/10/05 00:20:41;;;;;;;62.03;45.90;;;;;;;;;;6289473;28;20072;-68
2022/10/05 00:23:43;;;;;;;62.88;46.70;;;;;;;;;;6283370;28;20109;-66
2022/10/05 00:26:44;;;;;;;60.33;44.95;;;;;;;;;;6288619;28;20056;-64
2022/10/05 00:29:47;;;;;;;62.58;46.00;;;;;;;;;;6295422;28;20335;-66
2022/10/05 00:32:50;;;;;;;65.10;46.75;;;;;;;;;;6301025;28;20048;-66
2022/10/05 00:35:52;;;;;;;60.85;46.35;;;;;;;;;;6298021;28;20055;-66
2022/10/05 00:38:54;;;;;;;62.65;46.15;;;;;;;;;;6292024;28;20051;-69
2022/10/05 00:42:07;;;;;;;65.53;47.38;;;;;;;;;;6286755;28;20048;-66
2022/10/05 00:45:13;;;;;;;65.35;49.17;;;;;;;;;;6291402;28;20052;-70
2022/10/05 00:48:23;;;;;;;63.88;47.70;;;;;;;;;;6288817;28;20065;-65
2022/10/05 00:51:26;;;;;;;61.35;47.05;;;;;;;;;;6288534;28;20051;-66
2022/10/05 00:54:33;;;;;;;63.33;45.80;;;;;;;;;;6291566;28;20041;-67
2022/10/05 00:57:41;;;;;;;62.53;45.88;;;;;;;;;;6286345;28;20065;-65
2022/10/05 01:00:48;;;;;;;66.13;45.65;;;;;;;;;;6291643;28;20065;-65
2022/10/05 01:04:00;;;;;;;61.78;43.95;;;;;;;;;;6290604;28;20056;-71
2022/10/05 01:07:07;;;;;;;60.60;45.60;;;;;;;;;;6289300;28;20053;-65
2022/10/05 01:10:15;;;;;;;60.30;45.60;;;;;;;;;;6288774;28;20094;-67
2022/10/05 01:13:25;;;;;;;61.22;46.05;;;;;;;;;;6290940;28;20102;-66
2022/10/05 01:16:31;;;;;;;58.03;44.50;;;;;;;;;;6289950;28;20040;-66
2022/10/05 01:19:56;;;;;;;61.92;46.05;;;;;;;;;;6288549;28;20060;-66
2022/10/05 01:23:21;;;;;;;62.13;44.53;;;;;;;;;;6288257;28;20044;-66
2022/10/05 01:26:44;;;;;;;59.85;44.15;;;;;;;;;;6287158;28;20350;-76
2022/10/05 01:29:54;;;;;;;59.22;44.05;;;;;;;;;;6288885;28;20101;-72
2022/10/05 01:33:01;;;;;;;61.78;44.92;;;;;;;;;;6287251;28;20094;-69
2022/10/05 01:36:09;;;;;;;58.90;45.13;;;;;;;;;;6290371;28;20115;-65
2022/10/05 01:39:17;;;;;;;61.15;45.40;;;;;;;;;;6289039;28;20055;-66
2022/10/05 01:42:27;;;;;;;64.38;44.58;;;;;;;;;;6288999;28;20053;-65
2022/10/05 01:45:35;;;;;;;60.40;45.50;;;;;;;;;;6288370;28;20069;-69
2022/10/05 01:48:44;;;;;;;64.03;45.58;;;;;;;;;;6285819;28;20053;-65
2022/10/05 01:51:54;;;;;;;56.72;43.75;;;;;;;;;;6288997;28;20064;-66
2022/10/05 01:55:09;;;;;;;60.83;45.28;;;;;;;;;;6292299;28;20090;-67
2022/10/05 01:58:15;;;;;;;58.90;42.97;;;;;;;;;;6293458;28;20102;-70
2022/10/05 02:01:24;;;;;;;54.53;42.50;;;;;;;;;;6282708;28;20052;-68
2022/10/05 02:04:31;;;;;;;59.20;45.53;;;;;;;;;;6293810;28;20059;-65
2022/10/05 02:07:38;;;;;;;57.47;44.22;;;;;;;;;;6294479;28;20067;-69
2022/10/05 02:10:42;;;;;;;62.22;45.35;;;;;;;;;;6298040;28;20063;-68
2022/10/05 02:13:47;;;;;;;57.55;44.33;;;;;;;;;;6294857;28;20083;-65
2022/10/05 02:16:51;;;;;;;58.50;44.35;;;;;;;;;;6294382;28;20176;-67
2022/10/05 02:19:58;;;;;;;56.45;42.55;;;;;;;;;;6298728;28;20101;-65
2022/10/05 02:23:03;;;;;;;59.83;44.40;;;;;;;;;;6296214;28;20106;-65
2022/10/05 02:26:05;;;;;;;56.13;44.40;;;;;;;;;;6293438;28;20124;-65
2022/10/05 02:29:08;;;;;;;57.92;42.70;;;;;;;;;;6292751;28;20045;-67
2022/10/05 02:32:14;;;;;;;58.67;42.70;;;;;;;;;;6291386;28;20861;-69
2022/10/05 02:35:17;;;;;;;55.65;42.42;;;;;;;;;;6294704;28;20379;-66
2022/10/05 02:38:27;;;;;;;57.75;43.53;;;;;;;;;;6291478;28;20225;-65
2022/10/05 02:41:40;;;;;;;57.33;43.20;;;;;;;;;;6297583;28;20115;-65
2022/10/05 02:44:45;;;;;;;58.08;44.08;;;;;;;;;;6294021;28;20317;-65
2022/10/05 02:47:53;;;;;;;54.25;42.67;;;;;;;;;;6291271;28;20059;-71
2022/10/05 02:50:59;;;;;;;56.33;42.25;;;;;;;;;;6291548;28;20063;-66
2022/10/05 02:54:08;;;;;;;56.92;42.47;;;;;;;;;;6292650;28;20048;-65
2022/10/05 02:57:14;;;;;;;58.92;43.95;;;;;;;;;;6290674;28;20052;-65
2022/10/05 03:00:18;;;;;;;56.47;41.67;;;;;;;;;;6288600;28;20044;-65
2022/10/05 03:03:25;;;;;;;57.80;41.47;;;;;;;;;;6289767;28;20105;-65
2022/10/05 03:06:30;;;;;;;50.85;40.45;;;;;;;;;;6290665;28;20055;-65
2022/10/05 03:09:37;;;;;;;54.95;41.80;;;;;;;;;;6296332;28;20125;-69
2022/10/05 03:12:45;;;;;;;54.42;40.22;;;;;;;;;;6290177;28;20056;-68
2022/10/05 03:16:04;;;;;;;55.53;40.30;;;;;;;;;;6290386;28;20064;-75
2022/10/05 03:19:17;;;;;;;49.08;38.90;;;;;;;;;;6295947;28;20048;-65
2022/10/05 03:22:32;;;;;;;53.53;40.00;;;;;;;;;;6291466;28;20063;-65
2022/10/05 03:25:46;;;;;;;51.80;40.15;;;;;;;;;;6288465;28;20052;-67
2022/10/05 03:28:56;;;;;;;53.72;38.90;;;;;;;;;;6296711;28;20056;-64
2022/10/05 03:32:03;;;;;;;58.53;39.30;;;;;;;;;;6290269;28;20059;-69
2022/10/05 03:35:09;;;;;;;50.00;37.25;;;;;;;;;;6291916;28;20363;-67
2022/10/05 03:38:15;;;;;;;51.80;38.65;;;;;;;;;;6289920;28;20111;-76
2022/10/05 03:41:23;;;;;;;48.90;37.58;;;;;;;;;;6291878;28;20064;-67
2022/10/05 03:44:32;;;;;;;50.40;37.58;;;;;;;;;;6292027;28;20084;-65
2022/10/05 03:47:40;;;;;;;46.75;36.13;;;;;;;;;;6292625;28;20056;-65
2022/10/05 03:50:47;;;;;;;47.40;37.78;;;;;;;;;;6291785;28;20191;-64
2022/10/05 03:53:54;;;;;;;51.33;37.10;;;;;;;;;;6295605;28;20060;-65
2022/10/05 03:56:57;;;;;;;51.22;36.95;;;;;;;;;;6293249;28;20209;-65
2022/10/05 04:00:01;;;;;;;44.42;35.13;;;;;;;;;;6293617;28;20878;-66
2022/10/05 04:03:05;;;;;;;46.58;37.17;;;;;;;;;;6293187;28;20048;-69
2022/10/05 04:06:11;;;;;;;50.45;36.33;;;;;;;;;;6292231;28;20129;-76
2022/10/05 04:09:15;;;;;;;43.95;35.33;;;;;;;;;;6290868;28;20048;-65
2022/10/05 04:12:27;;;;;;;45.00;34.53;;;;;;;;;;6289170;28;20218;-77
2022/10/05 04:15:32;;;;;;;45.10;35.47;;;;;;;;;;6286965;28;20056;-66
2022/10/05 04:18:36;;;;;;;49.83;36.30;;;;;;;;;;6295011;28;20102;-65
2022/10/05 04:21:45;;;;;;;45.13;35.90;;;;;;;;;;6291034;28;20320;-65
2022/10/05 04:24:50;;;;;;;45.22;36.05;;;;;;;;;;6294218;28;20126;-65
2022/10/05 04:27:58;;;;;;;43.67;34.95;;;;;;;;;;6290079;28;20118;-65
2022/10/05 04:31:00;;;;;;;46.55;35.13;;;;;;;;;;6287736;28;20099;-65
2022/10/05 04:34:05;;;;;;;46.03;34.63;;;;;;;;;;6291480;28;20213;-65
2022/10/05 04:37:13;;;;;;;42.50;33.50;;;;;;;;;;6288229;28;20048;-66
2022/10/05 04:40:26;;;;;;;44.50;33.10;;;;;;;;;;6290677;28;20052;-69
2022/10/05 04:43:35;;;;;;;44.45;34.20;;;;;;;;;;6288653;28;20151;-66
2022/10/05 04:46:47;;;;;;;43.60;34.15;;;;;;;;;;6295865;28;20049;-65
2022/10/05 04:50:06;;;;;;;47.33;32.92;;;;;;;;;;6297554;28;20048;-65
2022/10/05 04:53:20;;;;;;;43.22;31.83;;;;;;;;;;6300252;28;20051;-65
2022/10/05 04:56:28;;;;;;;45.95;31.88;;;;;;;;;;6290402;28;20141;-66
2022/10/05 05:00:06;;;;;;;42.05;31.85;;;;;;;;;;6285880;28;20283;-65
2022/10/05 05:03:28;;;;;;;44.58;30.85;;;;;;;;;;6284680;28;20181;-66
2022/10/05 05:06:33;;;;;;;43.80;31.73;;;;;;;;;;6275324;28;20075;-68
2022/10/05 05:10:15;;;;;;;40.30;30.83;;;;;;;;;;6288907;28;20136;-65
2022/10/05 05:13:39;;;;;;;39.58;28.90;;;;;;;;;;6292150;28;20060;-77
2022/10/05 05:16:42;;;;;;;37.95;29.70;;;;;;;;;;6263571;28;20103;-67
2022/10/05 05:19:51;;;;;;;37.22;28.73;;;;;;;;;;6277495;28;20053;-69
2022/10/05 05:22:57;;;;;;;37.25;28.80;;;;;;;;;;6276419;28;20118;-65
2022/10/05 05:26:08;;;;;;;40.03;28.67;;;;;;;;;;6276372;28;20053;-72
2022/10/05 05:29:16;;;;;;;35.22;28.73;;;;;;;;;;6288619;28;20060;-67
2022/10/05 05:32:23;;;;;;;41.25;29.27;;;;;;;;;;6285452;28;20111;-75
2022/10/05 05:35:42;;;;;;;40.65;28.95;;;;;;;;;;6272103;28;20276;-65
2022/10/05 05:38:51;;;;;;;36.90;28.48;;;;;;;;;;6263436;28;20112;-66
2022/10/05 05:41:59;;;;;;;34.22;27.20;;;;;;;;;;6266736;28;20138;-69
2022/10/05 05:45:06;;;;;;;39.75;28.20;;;;;;;;;;6266412;28;20103;-69
2022/10/05 05:48:15;;;;;;;37.08;28.02;;;;;;;;;;6264677;28;20060;-70
2022/10/05 05:51:20;;;;;;;37.00;27.55;;;;;;;;;;6272258;28;20103;-65
2022/10/05 05:54:28;;;;;;;40.65;27.60;;;;;;;;;;6294366;28;20052;-66
2022/10/05 05:57:35;;;;;;;40.10;29.15;;;;;;;;;;6292656;28;20057;-72
2022/10/05 06:00:41;;;;;;;36.97;28.73;;;;;;;;;;6291607;28;20045;-66
2022/10/05 06:03:44;;;;;;;37.58;27.38;;;;;;;;;;6290473;28;20083;-76
2022/10/05 06:06:50;;;;;;;35.83;26.00;;;;;;;;;;6293025;28;20173;-67
2022/10/05 06:09:54;;;;;;;33.85;24.88;;;;;;;;;;6292710;28;20048;-69
2022/10/05 06:12:59;;;;;;;34.67;25.90;;;;;;;;;;6280387;28;20052;-66
2022/10/05 06:16:08;;;;;;;34.33;24.52;;;;;;;;;;6262348;28;20053;-66
2022/10/05 06:19:12;;;;;;;33.80;25.55;;;;;;;;;;6267901;28;20169;-66
2022/10/05 06:22:18;;;;;;;31.02;23.95;;;;;;;;;;6266122;28;20272;-66
2022/10/05 06:25:26;;;;;;;33.05;23.17;;;;;;;;;;6263342;28;20053;-66
2022/10/05 06:28:29;;;;;;;33.45;22.95;;;;;;;;;;6262822;28;20048;-68
2022/10/05 06:31:59;;;;;;;29.38;22.42;;;;;;;;;;6262545;28;20083;-66
2022/10/05 06:35:12;;;;;;;29.77;22.42;;;;;;;;;;6260810;28;20116;-65
2022/10/05 06:38:31;;;;;;;26.30;21.75;;;;;;;;;;6264409;28;20045;-64
2022/10/05 06:41:40;;;;;;;33.05;21.13;;;;;;;;;;6263480;28;20099;-65
2022/10/05 06:44:52;;;;;;;29.75;21.35;;;;;;;;;;6264856;28;20505;-65
2022/10/05 06:47:58;;;;;;;29.23;21.17;;;;;;;;;;6276831;28;20052;-64
2022/10/05 06:51:04;;;;;;;28.08;20.23;;;;;;;;;;6295696;28;20051;-73
2022/10/05 06:54:15;;;;;;;26.92;20.27;;;;;;;;;;6286987;28;20337;-66
2022/10/05 06:57:35;;;;;;;28.60;19.77;;;;;;;;;;6294474;28;20057;-65
2022/10/05 07:00:43;;;;;;;23.30;18.60;;;;;;;;;;6292166;28;20047;-69
2022/10/05 07:03:54;;;;;;;29.90;21.08;;;;;;;;;;6288017;28;20065;-79
2022/10/05 07:06:58;;;;;;;30.42;20.95;;;;;;;;;;6271210;28;20060;-66
2022/10/05 07:10:08;;;;;;;23.40;18.77;;;;;;;;;;6265268;28;20332;-70
2022/10/05 07:13:38;;;;;;;27.80;19.52;;;;;;;;;;6278705;28;20063;-65
2022/10/05 07:16:50;;;;;;;26.95;18.70;;;;;;;;;;6274826;28;20308;-65
2022/10/05 07:19:58;;;;;;;27.77;19.35;;;;;;;;;;6265408;28;20332;-66
2022/10/05 07:23:25;;;;;;;27.67;18.30;;;;;;;;;;6269251;28;20166;-65
2022/10/05 07:26:31;;;;;;;24.42;17.45;;;;;;;;;;6266712;28;20400;-65
2022/10/05 07:29:38;;;;;;;25.77;17.98;;;;;;;;;;6266300;28;20128;-64
2022/10/05 07:32:45;;;;;;;24.55;18.10;;;;;;;;;;6293905;28;20045;-65
2022/10/05 07:39:15;;;;;;;26.23;17.17;;;;;;;;;;6293096;28;20060;-65
2022/10/05 07:42:24;;;;;;;27.95;16.98;;;;;;;;;;6266854;28;20061;-68
2022/10/05 07:45:29;;;;;;;20.73;16.50;;;;;;;;;;6268404;28;20180;-65
2022/10/05 07:48:42;;;;;;;24.27;16.63;;;;;;;;;;6274289;28;20052;-65
2022/10/05 07:51:46;;;;;;;53.60;18.17;;;;;;;;;;6290114;28;20051;-65
2022/10/05 07:54:55;;;;;;;20.55;14.88;;;;;;;;;;6289893;28;20336;-65
2022/10/05 07:58:05;;;;;;;19.42;15.10;;;;;;;;;;6290823;28;20295;-68
2022/10/05 08:01:11;;;;;;;21.58;15.95;;;;;;;;;;6285311;28;20094;-67
2022/10/05 08:04:18;;;;;;;19.50;14.70;;;;;;;;;;6291320;28;20122;-69
2022/10/05 08:07:20;;;;;;;22.60;15.70;;;;;;;;;;6286138;28;20236;-66
2022/10/05 08:10:30;;;;;;;21.55;16.20;;;;;;;;;;6294771;28;20060;-67
2022/10/05 08:13:38;;;;;;;20.00;16.00;;;;;;;;;;6291744;28;20056;-66
2022/10/05 08:16:41;;;;;;;20.33;15.45;;;;;;;;;;6290251;28;20048;-67
2022/10/05 08:19:48;;;;;;;24.25;16.52;;;;;;;;;;6289019;28;20288;-66
2022/10/05 08:22:54;;;;;;;22.00;16.02;;;;;;;;;;6291641;28;20109;-65
2022/10/05 08:26:05;;;;;;;22.50;16.50;;;;;;;;;;6287798;28;20048;-68
2022/10/05 08:29:15;;;;;;;18.40;15.05;;;;;;;;;;6288089;28;20329;-73
2022/10/05 08:32:21;;;;;;;18.80;14.93;;;;;;;;;;6286402;28;20055;-64
2022/10/05 08:35:28;;;;;;;21.52;15.48;;;;;;;;;;6290335;28;20051;-70
2022/10/05 08:38:32;;;;;;;20.85;15.13;;;;;;;;;;6292418;28;20051;-66
2022/10/05 08:41:40;;;;;;;;;;;;;;;;;;6288989;28;20056;-65
2022/10/05 08:45:13;;;;;;;21.65;16.27;;;;;;;;;;6288874;28;19932;-65
2022/10/05 08:48:24;;;;;;;21.37;15.80;;;;;;;;;;6290892;28;20072;-66
2022/10/05 08:51:41;;;;;;;22.63;16.17;;;;;;;;;;6287581;28;20332;-66
2022/10/05 08:55:06;;;;;;;22.73;14.98;;;;;;;;;;6289730;28;20102;-74
2022/10/05 08:58:38;;;;;;;20.23;14.68;;;;;;;;;;6277289;28;20300;-65
2022/10/05 09:01:54;;;;;;;18.45;14.18;;;;;;;;;;6287340;28;20442;-64
2022/10/05 09:05:25;;;;;;;19.50;15.38;;;;;;;;;;6289078;28;20052;-64
2022/10/05 09:08:42;;;;;;;19.48;14.73;;;;;;;;;;6265762;28;20052;-67
2022/10/05 09:11:51;;;;;;;14.68;11.70;;;;;;;;;;6291728;28;20120;-66
2022/10/05 09:15:05;;;;;;;16.35;11.77;;;;;;;;;;6291930;28;20052;-66
2022/10/05 09:18:20;;;;;;;20.75;13.80;;;;;;;;;;6298482;28;20052;-67
2022/10/05 09:21:34;;;;;;;16.75;11.63;;;;;;;;;;6294492;28;20159;-65
2022/10/05 09:24:56;;;;;;;20.80;12.95;;;;;;;;;;6296332;28;20048;-66
2022/10/05 09:28:05;;;;;;;14.68;11.82;;;;;;;;;;6290810;28;20110;-67
2022/10/05 09:31:27;;;;;;;19.08;14.00;;;;;;;;;;6291460;28;20048;-66
2022/10/05 09:34:49;;;;;;;19.65;14.75;;;;;;;;;;6290121;28;20049;-67
2022/10/05 09:38:09;;;;;;;15.30;12.20;;;;;;;;;;6290073;28;20124;-66
2022/10/05 09:41:31;;;;;;;18.33;12.13;;;;;;;;;;6291949;28;20134;-66
2022/10/05 09:45:04;;;;;;;12.85;11.50;;;;;;;;;;6294679;28;20064;-66
2022/10/05 09:48:26;;;;;;;18.55;12.25;;;;;;;;;;6291387;28;20248;-66
2022/10/05 09:51:54;;;;;;;15.95;10.90;;;;;;;;;;6290993;28;20094;-66
2022/10/05 09:55:38;;;;;;;16.67;13.48;;;;;;;;;;6292138;28;20263;-67
2022/10/05 09:59:15;;;;;;;19.20;13.20;;;;;;;;;;6293480;28;20060;-65
2022/10/05 10:02:27;;;;;;;16.05;12.73;;;;;;;;;;6293850;28;20060;-65
2022/10/05 10:05:47;;;;;;;15.85;12.63;;;;;;;;;;6292057;28;20425;-68
2022/10/05 10:09:09;;;;;;;18.90;13.05;;;;;;;;;;6291690;28;20531;-66
2022/10/05 10:12:24;;;;;;;19.25;13.63;;;;;;;;;;6291370;28;20108;-67
2022/10/05 10:15:43;;;;;;;17.55;13.10;;;;;;;;;;6289810;28;20133;-71
2022/10/05 10:19:17;;;;;;;18.98;12.30;;;;;;;;;;6290910;28;20044;-66
2022/10/05 10:22:52;;;;;;;17.08;13.05;;;;;;;;;;6258370;28;20056;-70
2022/10/05 10:26:47;;;;;;;26.33;14.02;;;;;;;;;;6287161;28;20584;-66
2022/10/05 10:30:08;;;;;;;38.92;29.23;;;;;;;;;;6292429;28;20052;-64
2022/10/05 10:33:33;;;;;;;166.68;128.68;;;;;;;;;;6294164;28;20296;-64
2022/10/05 10:36:57;;;;;;;56.05;40.63;;;;;;;;;;6293788;28;20217;-66
2022/10/05 10:40:14;;;;;;;53.72;38.55;;;;;;;;;;6288763;28;20120;-68
2022/10/05 10:43:44;;;;;;;81.07;58.53;;;;;;;;;;6293097;28;20061;-68
2022/10/05 10:46:53;;;;;;;49.08;36.17;;;;;;;;;;6290693;28;20278;-64
2022/10/05 10:50:11;;;;;;;20.33;14.65;;;;;;;;;;6289734;28;20186;-65
2022/10/05 10:53:35;;;;;;;16.92;11.93;;;;;;;;;;6289766;28;20315;-66
2022/10/05 10:57:02;;;;;;;15.55;11.02;;;;;;;;;;6290506;28;20052;-66
2022/10/05 11:00:41;;;;;;;14.88;9.85;;;;;;;;;;6285740;28;20209;-65
2022/10/05 11:03:58;;;;;;;15.95;10.38;;;;;;;;;;6187742;28;20054;-68
2022/10/05 11:07:42;;;;;;;16.98;11.25;;;;;;;;;;6188286;28;20165;-74
2022/10/05 11:11:14;;;;;;;12.32;10.05;;;;;;;;;;6169580;28;20275;-68
2022/10/05 11:14:35;;;;;;;9.27;8.15;;;;;;;;;;6188257;28;20104;-63
2022/10/05 11:17:50;;;;;;;15.63;9.45;;;;;;;;;;6183800;28;20055;-65
2022/10/05 11:21:16;;;;;;;11.52;9.02;;;;;;;;;;6186099;28;20302;-65
2022/10/05 11:24:49;;;;;;;12.85;10.88;;;;;;;;;;6182494;28;20299;-64
2022/10/05 11:28:00;;;;;;;16.73;10.55;;;;;;;;;;6188542;28;20050;-66
2022/10/05 11:31:23;;;;;;;12.50;9.50;;;;;;;;;;6199527;28;20137;-65
2022/10/05 11:34:28;;;;;;;;;;;;;;;;;;6248798;28;20052;-66
2022/10/05 11:38:03;;;;;;;15.43;11.27;;;;;;;;;;6294337;28;19966;-65
2022/10/05 11:41:44;;;;;;;15.05;10.27;;;;;;;;;;6292113;28;20275;-66
2022/10/05 11:45:14;;;;;;;15.63;10.55;;;;;;;;;;6278985;28;20051;-65
2022/10/05 11:48:48;;;;;;;21.77;13.48;;;;;;;;;;6295811;28;20236;-67
2022/10/05 11:52:00;;;;;;;15.02;11.95;;;;;;;;;;6288945;28;20348;-65
2022/10/05 11:55:23;;;;;;;15.40;12.00;;;;;;;;;;6294727;28;20053;-65
2022/10/05 11:58:28;;;;;;;12.25;10.88;;;;;;;;;;6293311;28;20332;-67
2022/10/05 12:01:36;;;;;;;11.75;10.27;;;;;;;;;;6289231;28;20178;-66
2022/10/05 12:04:46;;;;;;;15.13;12.90;;;;;;;;;;6294315;28;20061;-66
2022/10/05 12:08:00;;;;;;;14.13;12.63;;;;;;;;;;6293169;28;20126;-65
2022/10/05 12:11:08;;;;;;;12.20;10.90;;;;;;;;;;6292309;28;20107;-67
2022/10/05 12:14:20;;;;;;;13.35;11.45;;;;;;;;;;6295508;28;20194;-66
2022/10/05 12:17:26;;;;;;;10.95;9.68;;;;;;;;;;6292459;28;20052;-66
2022/10/05 12:20:33;;;;;;;13.88;11.18;;;;;;;;;;6293848;28;20037;-67
2022/10/05 12:23:39;;;;;;;16.20;14.48;;;;;;;;;;6291465;28;20045;-67
2022/10/05 12:26:46;;;;;;;13.65;10.68;;;;;;;;;;6293774;28;20048;-69
2022/10/05 12:29:51;;;;;;;13.63;11.30;;;;;;;;;;6289482;28;20052;-68
2022/10/05 12:32:59;;;;;;;14.20;12.70;;;;;;;;;;6290682;28;20040;-66
2022/10/05 12:36:06;;;;;;;12.98;11.60;;;;;;;;;;6290809;28;20355;-69
2022/10/05 12:39:15;;;;;;;15.68;12.25;;;;;;;;;;6295004;28;20059;-66
2022/10/05 12:42:25;;;;;;;13.85;12.40;;;;;;;;;;6294479;28;20118;-67
2022/10/05 12:45:36;;;;;;;13.48;10.85;;;;;;;;;;6290913;28;21474;-69
2022/10/05 12:48:51;;;;;;;15.35;11.57;;;;;;;;;;6297933;28;20118;-66
2022/10/05 12:51:56;;;;;;;14.30;10.93;;;;;;;;;;6296277;28;20147;-65
2022/10/05 12:55:03;;;;;;;14.30;12.48;;;;;;;;;;6290969;28;20068;-66
2022/10/05 12:58:17;;;;;;;16.02;11.45;;;;;;;;;;6291621;28;20045;-66
2022/10/05 13:01:27;;;;;;;14.02;12.05;;;;;;;;;;6295225;28;20220;-66
2022/10/05 13:04:38;;;;;;;16.05;11.20;;;;;;;;;;6296056;28;20098;-67
2022/10/05 13:07:48;;;;;;;13.85;10.27;;;;;;;;;;6293641;28;20063;-67
2022/10/05 13:10:55;;;;;;;15.27;11.90;;;;;;;;;;6295620;28;20106;-69
2022/10/05 13:14:06;;;;;;;10.05;8.40;;;;;;;;;;6295565;28;20051;-67
2022/10/05 13:17:14;;;;;;;12.77;10.23;;;;;;;;;;6295193;28;20061;-65
2022/10/05 13:20:21;;;;;;;18.08;11.85;;;;;;;;;;6295015;28;20102;-66
2022/10/05 13:23:27;;;;;;;16.83;13.18;;;;;;;;;;6300069;28;20072;-74
2022/10/05 13:26:34;;;;;;;15.00;11.55;;;;;;;;;;6296773;28;20772;-67
2022/10/05 13:29:39;;;;;;;14.80;11.85;;;;;;;;;;6296556;28;20057;-67
2022/10/05 13:32:44;;;;;;;14.35;9.23;;;;;;;;;;6291281;28;20068;-66
2022/10/05 13:35:51;;;;;;;10.95;8.32;;;;;;;;;;6295729;28;20158;-67
2022/10/05 13:38:58;;;;;;;13.48;8.55;;;;;;;;;;6291942;28;20052;-67
2022/10/05 13:42:05;;;;;;;12.57;9.02;;;;;;;;;;6296065;28;20051;-67
2022/10/05 13:45:13;;;;;;;12.57;8.50;;;;;;;;;;6294682;28;20053;-67
2022/10/05 13:48:27;;;;;;;18.33;10.88;;;;;;;;;;6295341;28;20070;-66
2022/10/05 13:51:36;;;;;;;11.68;9.48;;;;;;;;;;6292790;28;20063;-67
2022/10/05 13:54:43;;;;;;;11.95;8.90;;;;;;;;;;6292758;28;20049;-76
2022/10/05 13:57:53;;;;;;;9.90;7.13;;;;;;;;;;6297999;28;20097;-68
2022/10/05 14:00:58;;;;;;;11.48;8.88;;;;;;;;;;6295820;28;20068;-66
2022/10/05 14:04:10;;;;;;;11.25;8.57;;;;;;;;;;6299355;28;20048;-75
2022/10/05 14:07:23;;;;;;;12.85;8.88;;;;;;;;;;6295727;28;20079;-68
2022/10/05 14:10:32;;;;;;;10.02;7.88;;;;;;;;;;6299272;28;20085;-68
2022/10/05 14:13:46;;;;;;;11.27;9.18;;;;;;;;;;6301384;28;20041;-66
2022/10/05 14:16:52;;;;;;;12.60;9.73;;;;;;;;;;6298212;28;20075;-67
2022/10/05 14:19:57;;;;;;;12.40;8.02;;;;;;;;;;6300162;28;20049;-70
2022/10/05 14:23:02;;;;;;;12.52;9.30;;;;;;;;;;6300914;28;20143;-71
2022/10/05 14:26:17;;;;;;;10.95;8.60;;;;;;;;;;6294966;28;20123;-68
2022/10/05 14:29:24;;;;;;;10.60;6.65;;;;;;;;;;6298551;28;20190;-67
2022/10/05 14:32:27;;;;;;;7.93;6.95;;;;;;;;;;6292859;28;20068;-69
2022/10/05 14:35:28;;;;;;;;;;;;;;;;;;6297555;28;20355;-65
2022/10/05 14:38:34;;;;;;;10.68;8.82;;;;;;;;;;6291946;28;19931;-68
2022/10/05 14:41:36;;;;;;;10.45;8.63;;;;;;;;;;6297253;28;20057;-67
2022/10/05 14:44:39;;;;;;;14.48;10.20;;;;;;;;;;6293775;28;20052;-66
2022/10/05 14:47:47;;;;;;;11.50;10.02;;;;;;;;;;6295242;28;20055;-69
2022/10/05 14:50:54;;;;;;;16.98;10.63;;;;;;;;;;6294121;28;20098;-67
2022/10/05 14:53:58;;;;;;;11.68;9.32;;;;;;;;;;6296355;28;20097;-66
2022/10/05 14:57:08;;;;;;;13.60;10.65;;;;;;;;;;6296409;28;20063;-66
2022/10/05 15:00:15;;;;;;;12.18;8.10;;;;;;;;;;6293822;28;20041;-66
2022/10/05 15:03:26;;;;;;;11.32;9.55;;;;;;;;;;6296555;28;20056;-67
2022/10/05 15:06:34;;;;;;;11.57;8.50;;;;;;;;;;6292184;28;20140;-67
2022/10/05 15:09:45;;;;;;;12.52;9.48;;;;;;;;;;6293770;28;20046;-66
2022/10/05 15:12:48;;;;;;;14.95;10.85;;;;;;;;;;6294855;28;20049;-65
2022/10/05 15:15:53;;;;;;;15.15;9.60;;;;;;;;;;6294517;28;20143;-66
2022/10/05 15:19:00;;;;;;;17.13;11.60;;;;;;;;;;6296130;28;20072;-70
2022/10/05 15:22:17;;;;;;;16.83;10.68;;;;;;;;;;6296055;28;20124;-65
2022/10/05 15:25:26;;;;;;;17.25;11.48;;;;;;;;;;6291746;28;20108;-66
2022/10/05 15:28:33;;;;;;;14.93;9.70;;;;;;;;;;6291428;28;20107;-65
2022/10/05 15:31:41;;;;;;;13.35;8.80;;;;;;;;;;6290648;28;20048;-67
2022/10/05 15:34:49;;;;;;;10.50;7.68;;;;;;;;;;6290437;28;20053;-71
2022/10/05 15:37:54;;;;;;;14.55;9.82;;;;;;;;;;6289340;28;20074;-70
2022/10/05 15:41:08;;;;;;;15.75;9.75;;;;;;;;;;6289730;28;20332;-66
2022/10/05 15:44:16;;;;;;;14.82;11.43;;;;;;;;;;6287986;28;20044;-66
2022/10/05 15:47:23;;;;;;;18.95;10.95;;;;;;;;;;6290915;28;20347;-68
2022/10/05 15:50:27;;;;;;;14.40;11.73;;;;;;;;;;6289632;28;20086;-65
2022/10/05 15:53:36;;;;;;;17.17;10.93;;;;;;;;;;6283350;28;20234;-67
2022/10/05 15:56:38;;;;;;;13.85;10.85;;;;;;;;;;6275255;28;20115;-70
2022/10/05 15:59:46;;;;;;;14.02;9.57;;;;;;;;;;6288649;28;20053;-65
2022/10/05 16:02:53;;;;;;;14.90;10.60;;;;;;;;;;6289267;28;20056;-64
2022/10/05 16:09:33;;;;;;;183.07;146.82;;;;;;;;;;6285098;28;20048;-68
2022/10/05 16:12:43;;;;;;;169.55;117.15;;;;;;;;;;6291647;28;20044;-67
2022/10/05 16:15:49;;;;;;;78.10;53.60;;;;;;;;;;6280238;28;20155;-65
2022/10/05 16:18:58;;;;;;;116.28;74.63;;;;;;;;;;6293012;28;20268;-65
2022/10/05 16:22:05;;;;;;;99.38;62.75;;;;;;;;;;6288518;28;20259;-67
2022/10/05 16:25:09;;;;;;;59.92;40.83;;;;;;;;;;6289952;28;21424;-67
2022/10/05 16:28:20;;;;;;;44.70;30.98;;;;;;;;;;6288191;28;20052;-67
2022/10/05 16:31:25;;;;;;;63.70;40.28;;;;;;;;;;6288782;28;20071;-63
2022/10/05 16:34:39;;;;;;;27.70;21.00;;;;;;;;;;6292415;28;20057;-65
2022/10/05 16:37:47;;;;;;;33.45;22.33;;;;;;;;;;6294232;28;20060;-65
2022/10/05 16:40:57;;;;;;;16.27;13.10;;;;;;;;;;6293252;28;20102;-65
2022/10/05 16:44:04;;;;;;;24.13;13.18;;;;;;;;;;6287423;28;20325;-66
2022/10/05 16:47:27;;;;;;;17.75;13.32;;;;;;;;;;6294985;28;20068;-65
2022/10/05 16:50:35;;;;;;;19.38;13.80;;;;;;;;;;6292506;28;20051;-66
2022/10/05 16:53:40;;;;;;;21.33;14.45;;;;;;;;;;6287247;28;20115;-67
2022/10/05 16:56:45;;;;;;;20.80;13.52;;;;;;;;;;6292229;28;20052;-65
2022/10/05 17:00:07;;;;;;;19.88;15.75;;;;;;;;;;6292704;28;20056;-65
2022/10/05 17:03:25;;;;;;;22.70;14.98;;;;;;;;;;6290339;28;20111;-68
2022/10/05 17:07:00;;;;;;;21.73;14.73;;;;;;;;;;6288881;28;20276;-71
2022/10/05 17:10:23;;;;;;;19.50;15.27;;;;;;;;;;6287499;28;20049;-65
2022/10/05 17:13:45;;;;;;;21.48;14.73;;;;;;;;;;6293427;28;20147;-66
2022/10/05 17:16:56;;;;;;;26.63;16.75;;;;;;;;;;6292694;28;20060;-67
2022/10/05 17:20:27;;;;;;;21.50;16.95;;;;;;;;;;6292986;28;20098;-65
2022/10/05 17:23:39;;;;;;;19.88;14.70;;;;;;;;;;6294475;28;20367;-65
2022/10/05 17:26:55;;;;;;;19.73;14.57;;;;;;;;;;6295617;28;20078;-66
2022/10/05 17:30:30;;;;;;;21.50;16.00;;;;;;;;;;6293115;28;20232;-67
2022/10/05 17:33:34;;;;;;;23.23;16.88;;;;;;;;;;6292924;28;20277;-65
2022/10/05 17:36:42;;;;;;;23.70;15.40;;;;;;;;;;6292317;28;20348;-65
2022/10/05 17:39:48;;;;;;;20.48;16.10;;;;;;;;;;6296911;28;20078;-64
2022/10/05 17:43:00;;;;;;;20.30;15.85;;;;;;;;;;6299676;28;20078;-66
2022/10/05 17:46:02;;;;;;;21.20;15.23;;;;;;;;;;6295724;28;20040;-66
2022/10/05 17:49:20;;;;;;;24.07;16.57;;;;;;;;;;6294303;28;20049;-67
2022/10/05 17:55:45;;;;;;;24.42;16.05;;;;;;;;;;6299502;28;20056;-64
2022/10/05 17:58:58;;;;;;;24.25;16.65;;;;;;;;;;6298661;28;20086;-60
2022/10/05 18:02:15;;;;;;;23.48;17.15;;;;;;;;;;6296149;28;20144;-61
2022/10/05 18:05:26;;;;;;;26.42;17.15;;;;;;;;;;6294834;28;20067;-62
2022/10/05 18:08:36;;;;;;;29.08;18.70;;;;;;;;;;6293852;28;20134;-62
2022/10/05 18:11:42;;;;;;;28.77;18.75;;;;;;;;;;6289302;28;20259;-65
2022/10/05 18:14:56;;;;;;;29.30;17.33;;;;;;;;;;6287046;28;20068;-61
2022/10/05 18:18:30;;;;;;;24.38;17.88;;;;;;;;;;6289268;28;20048;-62
2022/10/05 18:21:39;;;;;;;24.80;17.92;;;;;;;;;;6294343;28;20040;-61
2022/10/05 18:24:54;;;;;;;26.15;18.05;;;;;;;;;;6294762;28;20115;-61
2022/10/05 18:28:15;;;;;;;26.08;18.75;;;;;;;;;;6294037;28;20056;-64
2022/10/05 18:31:26;;;;;;;26.55;18.40;;;;;;;;;;6300097;28;20138;-63
2022/10/05 18:34:32;;;;;;;38.13;19.63;;;;;;;;;;6298010;28;20040;-63
2022/10/05 18:37:42;;;;;;;27.65;18.77;;;;;;;;;;6296156;28;20052;-61
2022/10/05 18:40:51;;;;;;;23.25;17.92;;;;;;;;;;6295596;28;20099;-64
2022/10/05 18:44:03;;;;;;;22.85;16.92;;;;;;;;;;6297724;28;20055;-65
2022/10/05 18:47:12;;;;;;;25.60;19.10;;;;;;;;;;6293777;28;20052;-65